Blackpipe, South Dakota
Current Conditions -  °F | °C
As of 5:55 AM on Friday 31 Oct 2014 (Local Time) from KPHP Reporting Station
Overcast Overcast  
Wind Chill: 21°   Ceiling: 1300
Heat Index: 30°   Visibility: 10mi
Dew Point: 24°   Wind: 10mph
Humidity: 79%   Direction: 130°SE
Pressure: 30.52"   Gusts: NA
Location:  43.4752°N, 101.081°W
Report Text: KPHP 311055Z AUTO 13009KT 10SM OVC013 M01/M04 A3052 RMK AO2 SLP351 T10111044
Loading
Personal Weather Stations






























Interactive Weather Map
Tropical Storm Tracking
New forecast layout! Learn more

10-Day Weather Forecast

Advertisements
Track Severe Weather on mobile